sensor_id;sensor_type;location;lat;lon;timestamp;P1;durP1;ratioP1;P2;durP2;ratioP2
52396;SDS011;38322;53.108;6.308;2023-07-13T05:01:25;11.50;;;3.92;;
52396;SDS011;38322;53.108;6.308;2023-07-13T05:03:52;8.75;;;2.75;;
52396;SDS011;38322;53.108;6.308;2023-07-13T05:06:17;9.70;;;3.13;;
52396;SDS011;38322;53.108;6.308;2023-07-13T05:08:43;10.10;;;4.28;;
52396;SDS011;38322;53.108;6.308;2023-07-13T05:11:09;10.82;;;3.05;;
52396;SDS011;38322;53.108;6.308;2023-07-13T05:13:35;14.20;;;3.63;;
52396;SDS011;38322;53.108;6.308;2023-07-13T05:16:02;13.13;;;4.82;;
52396;SDS011;38322;53.108;6.308;2023-07-13T05:18:29;13.63;;;3.42;;
52396;SDS011;38322;53.108;6.308;2023-07-13T05:20:57;13.43;;;3.63;;
52396;SDS011;38322;53.108;6.308;2023-07-13T05:23:24;13.13;;;3.13;;
52396;SDS011;38322;53.108;6.308;2023-07-13T05:25:50;13.27;;;3.15;;
52396;SDS011;38322;53.108;6.308;2023-07-13T05:28:16;8.98;;;2.60;;
52396;SDS011;38322;53.108;6.308;2023-07-13T05:30:45;12.85;;;2.53;;
52396;SDS011;38322;53.108;6.308;2023-07-13T05:33:11;10.30;;;2.88;;
52396;SDS011;38322;53.108;6.308;2023-07-13T05:35:38;7.60;;;2.67;;
52396;SDS011;38322;53.108;6.308;2023-07-13T05:38:03;11.75;;;3.70;;
52396;SDS011;38322;53.108;6.308;2023-07-13T05:40:29;9.38;;;2.97;;
52396;SDS011;38322;53.108;6.308;2023-07-13T05:42:55;11.57;;;3.65;;
52396;SDS011;38322;53.108;6.308;2023-07-13T05:45:21;9.38;;;2.95;;
52396;SDS011;38322;53.108;6.308;2023-07-13T05:47:47;6.38;;;2.78;;
52396;SDS011;38322;53.108;6.308;2023-07-13T05:50:13;10.48;;;3.35;;
52396;SDS011;38322;53.108;6.308;2023-07-13T05:52:39;6.90;;;2.42;;
52396;SDS011;38322;53.108;6.308;2023-07-13T05:55:04;9.48;;;2.63;;
52396;SDS011;38322;53.108;6.308;2023-07-13T05:57:30;10.93;;;3.80;;
52396;SDS011;38322;53.108;6.308;2023-07-13T05:59:57;7.22;;;2.00;;
52396;SDS011;38322;53.108;6.308;2023-07-13T06:02:23;10.13;;;2.88;;
52396;SDS011;38322;53.108;6.308;2023-07-13T06:04:49;11.93;;;3.45;;
52396;SDS011;38322;53.108;6.308;2023-07-13T06:07:14;10.40;;;2.58;;
52396;SDS011;38322;53.108;6.308;2023-07-13T06:09:40;14.45;;;3.30;;
52396;SDS011;38322;53.108;6.308;2023-07-13T06:12:06;9.90;;;3.03;;
52396;SDS011;38322;53.108;6.308;2023-07-13T06:14:32;8.52;;;2.38;;
52396;SDS011;38322;53.108;6.308;2023-07-13T06:16:58;7.25;;;2.17;;
52396;SDS011;38322;53.108;6.308;2023-07-13T06:19:24;8.27;;;2.10;;
52396;SDS011;38322;53.108;6.308;2023-07-13T06:21:50;9.88;;;2.33;;
52396;SDS011;38322;53.108;6.308;2023-07-13T06:24:16;5.88;;;2.50;;
52396;SDS011;38322;53.108;6.308;2023-07-13T06:26:42;10.23;;;2.40;;
52396;SDS011;38322;53.108;6.308;2023-07-13T06:29:08;6.13;;;2.58;;
52396;SDS011;38322;53.108;6.308;2023-07-13T06:31:34;7.88;;;2.47;;
52396;SDS011;38322;53.108;6.308;2023-07-13T06:33:59;9.00;;;2.60;;
52396;SDS011;38322;53.108;6.308;2023-07-13T06:36:25;5.95;;;2.10;;
52396;SDS011;38322;53.108;6.308;2023-07-13T06:38:51;7.53;;;1.90;;
52396;SDS011;38322;53.108;6.308;2023-07-13T06:41:17;5.40;;;1.70;;
52396;SDS011;38322;53.108;6.308;2023-07-13T06:43:43;7.68;;;2.00;;
52396;SDS011;38322;53.108;6.308;2023-07-13T06:46:09;14.93;;;2.60;;
52396;SDS011;38322;53.108;6.308;2023-07-13T06:48:35;8.52;;;1.90;;
52396;SDS011;38322;53.108;6.308;2023-07-13T06:51:01;6.57;;;1.73;;
52396;SDS011;38322;53.108;6.308;2023-07-13T06:53:27;8.57;;;1.98;;
52396;SDS011;38322;53.108;6.308;2023-07-13T06:55:53;8.77;;;2.67;;
52396;SDS011;38322;53.108;6.308;2023-07-13T06:58:19;5.75;;;1.52;;
52396;SDS011;38322;53.108;6.308;2023-07-13T07:00:46;12.38;;;2.78;;
52396;SDS011;38322;53.108;6.308;2023-07-13T07:03:16;6.47;;;1.55;;
52396;SDS011;38322;53.108;6.308;2023-07-13T07:05:42;9.45;;;2.25;;
52396;SDS011;38322;53.108;6.308;2023-07-13T07:08:08;6.53;;;1.80;;
52396;SDS011;38322;53.108;6.308;2023-07-13T07:10:34;8.32;;;1.60;;
52396;SDS011;38322;53.108;6.308;2023-07-13T07:13:00;8.20;;;1.75;;
52396;SDS011;38322;53.108;6.308;2023-07-13T07:15:27;9.32;;;1.77;;
52396;SDS011;38322;53.108;6.308;2023-07-13T07:17:53;9.60;;;2.28;;
52396;SDS011;38322;53.108;6.308;2023-07-13T07:20:19;3.90;;;1.48;;
52396;SDS011;38322;53.108;6.308;2023-07-13T07:22:46;3.83;;;1.05;;
52396;SDS011;38322;53.108;6.308;2023-07-13T07:25:12;7.15;;;2.03;;
52396;SDS011;38322;53.108;6.308;2023-07-13T07:27:38;8.98;;;1.65;;
52396;SDS011;38322;53.108;6.308;2023-07-13T07:30:04;7.32;;;1.15;;
52396;SDS011;38322;53.108;6.308;2023-07-13T07:32:31;8.43;;;2.10;;
52396;SDS011;38322;53.108;6.308;2023-07-13T07:34:58;12.05;;;1.40;;
52396;SDS011;38322;53.108;6.308;2023-07-13T07:37:23;5.47;;;1.77;;
52396;SDS011;38322;53.108;6.308;2023-07-13T07:39:50;7.78;;;1.30;;
52396;SDS011;38322;53.108;6.308;2023-07-13T07:42:16;3.20;;;1.35;;
52396;SDS011;38322;53.108;6.308;2023-07-13T07:44:42;7.38;;;1.40;;
52396;SDS011;38322;53.108;6.308;2023-07-13T07:47:08;6.28;;;1.95;;
52396;SDS011;38322;53.108;6.308;2023-07-13T07:49:35;8.40;;;1.33;;
52396;SDS011;38322;53.108;6.308;2023-07-13T07:52:01;6.15;;;2.50;;
52396;SDS011;38322;53.108;6.308;2023-07-13T07:54:27;7.68;;;0.98;;
52396;SDS011;38322;53.108;6.308;2023-07-13T07:56:53;4.88;;;0.93;;
52396;SDS011;38322;53.108;6.308;2023-07-13T07:59:19;3.80;;;1.33;;
52396;SDS011;38322;53.108;6.308;2023-07-13T08:01:45;4.65;;;2.13;;
52396;SDS011;38322;53.108;6.308;2023-07-13T08:04:13;7.88;;;1.15;;
52396;SDS011;38322;53.108;6.308;2023-07-13T08:06:39;4.20;;;1.13;;
52396;SDS011;38322;53.108;6.308;2023-07-13T08:09:05;8.18;;;1.55;;
52396;SDS011;38322;53.108;6.308;2023-07-13T08:11:31;3.97;;;0.88;;
52396;SDS011;38322;53.108;6.308;2023-07-13T08:13:57;4.68;;;1.30;;
52396;SDS011;38322;53.108;6.308;2023-07-13T08:16:23;2.13;;;0.73;;
52396;SDS011;38322;53.108;6.308;2023-07-13T08:18:49;6.20;;;1.80;;
52396;SDS011;38322;53.108;6.308;2023-07-13T08:21:15;2.97;;;1.20;;
52396;SDS011;38322;53.108;6.308;2023-07-13T08:23:40;4.55;;;1.30;;
52396;SDS011;38322;53.108;6.308;2023-07-13T08:26:07;8.02;;;2.17;;
52396;SDS011;38322;53.108;6.308;2023-07-13T08:28:34;6.68;;;1.10;;
52396;SDS011;38322;53.108;6.308;2023-07-13T08:31:06;3.22;;;1.20;;
52396;SDS011;38322;53.108;6.308;2023-07-13T08:33:34;3.65;;;0.80;;
52396;SDS011;38322;53.108;6.308;2023-07-13T08:36:01;6.25;;;1.13;;
52396;SDS011;38322;53.108;6.308;2023-07-13T08:38:27;3.83;;;1.33;;
52396;SDS011;38322;53.108;6.308;2023-07-13T08:40:54;7.18;;;1.83;;
52396;SDS011;38322;53.108;6.308;2023-07-13T08:43:27;4.13;;;0.98;;
52396;SDS011;38322;53.108;6.308;2023-07-13T08:45:57;5.70;;;1.35;;
52396;SDS011;38322;53.108;6.308;2023-07-13T08:48:39;4.35;;;1.02;;
52396;SDS011;38322;53.108;6.308;2023-07-13T08:54:00;6.88;;;0.93;;
52396;SDS011;38322;53.108;6.308;2023-07-13T08:56:28;4.15;;;1.17;;
52396;SDS011;38322;53.108;6.308;2023-07-13T08:58:56;4.28;;;1.10;;
52396;SDS011;38322;53.108;6.308;2023-07-13T09:04:16;3.58;;;1.33;;
52396;SDS011;38322;53.108;6.308;2023-07-13T09:06:55;3.95;;;1.63;;
52396;SDS011;38322;53.108;6.308;2023-07-13T09:12:21;3.97;;;0.93;;
52396;SDS011;38322;53.108;6.308;2023-07-13T09:14:56;2.88;;;1.10;;
52396;SDS011;38322;53.108;6.308;2023-07-13T09:17:27;4.53;;;1.10;;
52396;SDS011;38322;53.108;6.308;2023-07-13T09:20:00;9.52;;;1.70;;
52396;SDS011;38322;53.108;6.308;2023-07-13T09:22:31;3.17;;;1.15;;
52396;SDS011;38322;53.108;6.308;2023-07-13T09:25:10;5.50;;;1.27;;
52396;SDS011;38322;53.108;6.308;2023-07-13T09:27:48;5.15;;;1.13;;
52396;SDS011;38322;53.108;6.308;2023-07-13T09:30:28;3.42;;;1.13;;
52396;SDS011;38322;53.108;6.308;2023-07-13T09:32:59;2.60;;;1.17;;
52396;SDS011;38322;53.108;6.308;2023-07-13T09:35:27;5.70;;;1.13;;
52396;SDS011;38322;53.108;6.308;2023-07-13T09:37:57;4.32;;;1.08;;
52396;SDS011;38322;53.108;6.308;2023-07-13T09:40:30;6.72;;;1.52;;
52396;SDS011;38322;53.108;6.308;2023-07-13T09:43:13;3.90;;;0.98;;
52396;SDS011;38322;53.108;6.308;2023-07-13T09:45:42;4.53;;;0.95;;
52396;SDS011;38322;53.108;6.308;2023-07-13T09:48:12;3.30;;;1.15;;
52396;SDS011;38322;53.108;6.308;2023-07-13T09:50:39;6.95;;;1.38;;
52396;SDS011;38322;53.108;6.308;2023-07-13T09:53:15;5.85;;;1.42;;
52396;SDS011;38322;53.108;6.308;2023-07-13T09:55:44;4.35;;;1.50;;
52396;SDS011;38322;53.108;6.308;2023-07-13T09:58:13;4.55;;;0.82;;
52396;SDS011;38322;53.108;6.308;2023-07-13T10:00:42;7.20;;;0.95;;
52396;SDS011;38322;53.108;6.308;2023-07-13T10:05:47;0.77;;;0.50;;
52396;SDS011;38322;53.108;6.308;2023-07-13T10:08:18;2.70;;;1.10;;
52396;SDS011;38322;53.108;6.308;2023-07-13T10:10:46;2.88;;;0.50;;
52396;SDS011;38322;53.108;6.308;2023-07-13T10:13:26;3.70;;;0.45;;
52396;SDS011;38322;53.108;6.308;2023-07-13T10:15:56;2.88;;;0.70;;
52396;SDS011;38322;53.108;6.308;2023-07-13T10:18:24;3.20;;;0.88;;
52396;SDS011;38322;53.108;6.308;2023-07-13T10:21:00;4.65;;;0.50;;
52396;SDS011;38322;53.108;6.308;2023-07-13T10:23:36;6.68;;;1.60;;
52396;SDS011;38322;53.108;6.308;2023-07-13T10:26:02;7.90;;;1.10;;
52396;SDS011;38322;53.108;6.308;2023-07-13T10:28:31;0.93;;;0.43;;
52396;SDS011;38322;53.108;6.308;2023-07-13T10:31:01;5.72;;;0.50;;
52396;SDS011;38322;53.108;6.308;2023-07-13T10:33:30;4.97;;;1.27;;
52396;SDS011;38322;53.108;6.308;2023-07-13T10:36:07;5.25;;;1.52;;
52396;SDS011;38322;53.108;6.308;2023-07-13T10:38:56;2.55;;;0.80;;
52396;SDS011;38322;53.108;6.308;2023-07-13T10:41:26;4.13;;;0.93;;
52396;SDS011;38322;53.108;6.308;2023-07-13T10:43:55;1.42;;;0.65;;
52396;SDS011;38322;53.108;6.308;2023-07-13T10:46:24;3.65;;;0.50;;
52396;SDS011;38322;53.108;6.308;2023-07-13T10:48:54;3.28;;;0.52;;
52396;SDS011;38322;53.108;6.308;2023-07-13T10:51:24;2.17;;;0.60;;
52396;SDS011;38322;53.108;6.308;2023-07-13T10:56:38;2.25;;;0.82;;
52396;SDS011;38322;53.108;6.308;2023-07-13T10:59:10;5.05;;;0.60;;
52396;SDS011;38322;53.108;6.308;2023-07-13T11:01:49;2.55;;;0.70;;
52396;SDS011;38322;53.108;6.308;2023-07-13T11:04:19;3.88;;;0.65;;
52396;SDS011;38322;53.108;6.308;2023-07-13T11:06:47;8.32;;;1.15;;
52396;SDS011;38322;53.108;6.308;2023-07-13T11:12:02;4.60;;;1.05;;
52396;SDS011;38322;53.108;6.308;2023-07-13T11:14:35;4.57;;;1.00;;
52396;SDS011;38322;53.108;6.308;2023-07-13T11:17:47;3.55;;;0.75;;
52396;SDS011;38322;53.108;6.308;2023-07-13T11:27:50;5.82;;;2.47;;
52396;SDS011;38322;53.108;6.308;2023-07-13T11:30:21;2.65;;;0.57;;
52396;SDS011;38322;53.108;6.308;2023-07-13T11:33:04;4.00;;;1.05;;
52396;SDS011;38322;53.108;6.308;2023-07-13T11:35:34;4.18;;;0.98;;
52396;SDS011;38322;53.108;6.308;2023-07-13T11:38:08;4.55;;;1.50;;
52396;SDS011;38322;53.108;6.308;2023-07-13T11:40:41;3.53;;;0.45;;
52396;SDS011;38322;53.108;6.308;2023-07-13T11:43:11;10.85;;;2.63;;
52396;SDS011;38322;53.108;6.308;2023-07-13T11:45:40;2.63;;;0.50;;
52396;SDS011;38322;53.108;6.308;2023-07-13T11:48:17;3.75;;;0.88;;
52396;SDS011;38322;53.108;6.308;2023-07-13T11:50:59;6.13;;;1.95;;
52396;SDS011;38322;53.108;6.308;2023-07-13T11:53:31;5.32;;;1.63;;
52396;SDS011;38322;53.108;6.308;2023-07-13T11:56:04;6.78;;;0.98;;
52396;SDS011;38322;53.108;6.308;2023-07-13T11:58:31;3.65;;;1.08;;
52396;SDS011;38322;53.108;6.308;2023-07-13T12:00:59;3.58;;;1.38;;
52396;SDS011;38322;53.108;6.308;2023-07-13T12:05:58;5.00;;;1.30;;
52396;SDS011;38322;53.108;6.308;2023-07-13T12:08:26;3.95;;;1.10;;
52396;SDS011;38322;53.108;6.308;2023-07-13T12:10:56;4.93;;;1.20;;
52396;SDS011;38322;53.108;6.308;2023-07-13T12:15:51;3.85;;;0.68;;
52396;SDS011;38322;53.108;6.308;2023-07-13T12:18:20;8.68;;;1.85;;
52396;SDS011;38322;53.108;6.308;2023-07-13T12:20:48;1.83;;;0.60;;
52396;SDS011;38322;53.108;6.308;2023-07-13T12:23:23;4.60;;;1.65;;
52396;SDS011;38322;53.108;6.308;2023-07-13T12:25:55;1.55;;;0.45;;
52396;SDS011;38322;53.108;6.308;2023-07-13T12:31:01;2.65;;;0.73;;
52396;SDS011;38322;53.108;6.308;2023-07-13T12:33:30;2.42;;;0.93;;
52396;SDS011;38322;53.108;6.308;2023-07-13T12:35:57;6.25;;;1.23;;
52396;SDS011;38322;53.108;6.308;2023-07-13T12:38:27;6.03;;;0.57;;
52396;SDS011;38322;53.108;6.308;2023-07-13T12:40:53;3.17;;;0.55;;
52396;SDS011;38322;53.108;6.308;2023-07-13T12:43:20;4.97;;;1.48;;
52396;SDS011;38322;53.108;6.308;2023-07-13T12:46:02;3.45;;;0.70;;
52396;SDS011;38322;53.108;6.308;2023-07-13T12:48:41;7.00;;;0.90;;
52396;SDS011;38322;53.108;6.308;2023-07-13T12:51:11;6.22;;;1.02;;
52396;SDS011;38322;53.108;6.308;2023-07-13T12:53:40;3.65;;;0.80;;
52396;SDS011;38322;53.108;6.308;2023-07-13T12:56:08;2.17;;;0.52;;
52396;SDS011;38322;53.108;6.308;2023-07-13T12:58:43;5.95;;;0.60;;
52396;SDS011;38322;53.108;6.308;2023-07-13T13:01:12;3.75;;;0.90;;
52396;SDS011;38322;53.108;6.308;2023-07-13T13:03:39;3.05;;;0.60;;
52396;SDS011;38322;53.108;6.308;2023-07-13T13:08:37;2.47;;;0.50;;
52396;SDS011;38322;53.108;6.308;2023-07-13T13:11:06;2.88;;;0.95;;
52396;SDS011;38322;53.108;6.308;2023-07-13T13:13:32;6.03;;;0.70;;
52396;SDS011;38322;53.108;6.308;2023-07-13T13:16:01;3.97;;;0.65;;
52396;SDS011;38322;53.108;6.308;2023-07-13T13:18:37;4.15;;;0.77;;
52396;SDS011;38322;53.108;6.308;2023-07-13T13:21:03;2.40;;;0.85;;
52396;SDS011;38322;53.108;6.308;2023-07-13T13:23:29;6.60;;;0.82;;
52396;SDS011;38322;53.108;6.308;2023-07-13T13:25:54;3.58;;;0.57;;
52396;SDS011;38322;53.108;6.308;2023-07-13T13:28:20;1.73;;;0.90;;
52396;SDS011;38322;53.108;6.308;2023-07-13T13:30:47;2.33;;;0.40;;
52396;SDS011;38322;53.108;6.308;2023-07-13T13:33:16;5.53;;;0.57;;
52396;SDS011;38322;53.108;6.308;2023-07-13T13:35:45;4.45;;;0.60;;
52396;SDS011;38322;53.108;6.308;2023-07-13T13:38:13;3.17;;;0.73;;
52396;SDS011;38322;53.108;6.308;2023-07-13T13:40:41;4.85;;;0.75;;
52396;SDS011;38322;53.108;6.308;2023-07-13T13:43:15;2.55;;;0.95;;
52396;SDS011;38322;53.108;6.308;2023-07-13T13:45:42;5.68;;;0.47;;
52396;SDS011;38322;53.108;6.308;2023-07-13T13:48:13;5.45;;;0.98;;
52396;SDS011;38322;53.108;6.308;2023-07-13T13:50:42;4.50;;;0.98;;
52396;SDS011;38322;53.108;6.308;2023-07-13T13:53:09;4.65;;;0.60;;
52396;SDS011;38322;53.108;6.308;2023-07-13T13:55:37;1.73;;;0.45;;
52396;SDS011;38322;53.108;6.308;2023-07-13T13:58:03;1.52;;;0.68;;
52396;SDS011;38322;53.108;6.308;2023-07-13T14:00:30;3.20;;;0.95;;
52396;SDS011;38322;53.108;6.308;2023-07-13T14:02:56;2.67;;;0.45;;
52396;SDS011;38322;53.108;6.308;2023-07-13T14:05:24;2.40;;;0.55;;
52396;SDS011;38322;53.108;6.308;2023-07-13T14:07:52;2.20;;;0.57;;
52396;SDS011;38322;53.108;6.308;2023-07-13T14:10:19;2.30;;;0.80;;
52396;SDS011;38322;53.108;6.308;2023-07-13T14:12:47;2.33;;;0.60;;
52396;SDS011;38322;53.108;6.308;2023-07-13T14:15:18;5.05;;;0.95;;
52396;SDS011;38322;53.108;6.308;2023-07-13T14:17:45;3.60;;;0.70;;
52396;SDS011;38322;53.108;6.308;2023-07-13T14:20:14;2.30;;;0.93;;
52396;SDS011;38322;53.108;6.308;2023-07-13T14:22:41;6.68;;;0.75;;
52396;SDS011;38322;53.108;6.308;2023-07-13T14:25:14;6.35;;;1.02;;
52396;SDS011;38322;53.108;6.308;2023-07-13T14:27:41;3.55;;;0.63;;
52396;SDS011;38322;53.108;6.308;2023-07-13T14:30:14;3.53;;;1.17;;
52396;SDS011;38322;53.108;6.308;2023-07-13T14:32:40;4.18;;;1.20;;
52396;SDS011;38322;53.108;6.308;2023-07-13T14:35:10;1.92;;;0.68;;
52396;SDS011;38322;53.108;6.308;2023-07-13T14:37:37;5.22;;;0.90;;
52396;SDS011;38322;53.108;6.308;2023-07-13T14:40:11;3.85;;;0.90;;
52396;SDS011;38322;53.108;6.308;2023-07-13T14:42:38;4.22;;;0.50;;
52396;SDS011;38322;53.108;6.308;2023-07-13T14:45:04;8.63;;;0.70;;
52396;SDS011;38322;53.108;6.308;2023-07-13T14:47:31;5.38;;;1.30;;
52396;SDS011;38322;53.108;6.308;2023-07-13T14:49:56;5.35;;;1.35;;
52396;SDS011;38322;53.108;6.308;2023-07-13T14:52:23;3.38;;;0.63;;
52396;SDS011;38322;53.108;6.308;2023-07-13T14:54:50;5.78;;;1.05;;
52396;SDS011;38322;53.108;6.308;2023-07-13T14:57:17;2.40;;;0.50;;
52396;SDS011;38322;53.108;6.308;2023-07-13T14:59:44;4.32;;;0.80;;
52396;SDS011;38322;53.108;6.308;2023-07-13T15:02:21;6.60;;;1.80;;
52396;SDS011;38322;53.108;6.308;2023-07-13T15:04:58;6.03;;;0.80;;
52396;SDS011;38322;53.108;6.308;2023-07-13T15:07:24;4.60;;;0.98;;
52396;SDS011;38322;53.108;6.308;2023-07-13T15:09:50;5.22;;;0.70;;
52396;SDS011;38322;53.108;6.308;2023-07-13T15:12:16;4.60;;;1.05;;
52396;SDS011;38322;53.108;6.308;2023-07-13T15:14:43;4.65;;;1.48;;
52396;SDS011;38322;53.108;6.308;2023-07-13T15:17:18;1.83;;;0.70;;
52396;SDS011;38322;53.108;6.308;2023-07-13T15:19:46;5.18;;;1.88;;
52396;SDS011;38322;53.108;6.308;2023-07-13T15:22:12;2.70;;;0.50;;
52396;SDS011;38322;53.108;6.308;2023-07-13T15:24:38;5.95;;;1.10;;
52396;SDS011;38322;53.108;6.308;2023-07-13T15:27:04;3.78;;;1.05;;
52396;SDS011;38322;53.108;6.308;2023-07-13T15:29:35;4.15;;;0.90;;
52396;SDS011;38322;53.108;6.308;2023-07-13T15:32:01;3.05;;;0.88;;
52396;SDS011;38322;53.108;6.308;2023-07-13T15:34:28;3.38;;;1.50;;
52396;SDS011;38322;53.108;6.308;2023-07-13T15:36:54;4.18;;;1.00;;
52396;SDS011;38322;53.108;6.308;2023-07-13T15:39:20;4.82;;;1.00;;
52396;SDS011;38322;53.108;6.308;2023-07-13T15:41:46;3.15;;;0.60;;
52396;SDS011;38322;53.108;6.308;2023-07-13T15:44:22;7.63;;;1.30;;
52396;SDS011;38322;53.108;6.308;2023-07-13T15:46:51;2.72;;;0.88;;
52396;SDS011;38322;53.108;6.308;2023-07-13T15:49:17;4.43;;;1.45;;
52396;SDS011;38322;53.108;6.308;2023-07-13T15:51:43;5.75;;;0.95;;
52396;SDS011;38322;53.108;6.308;2023-07-13T15:54:11;3.95;;;0.90;;
52396;SDS011;38322;53.108;6.308;2023-07-13T15:56:40;3.45;;;1.02;;
52396;SDS011;38322;53.108;6.308;2023-07-13T15:59:08;7.40;;;0.93;;
52396;SDS011;38322;53.108;6.308;2023-07-13T16:01:37;5.25;;;1.17;;
52396;SDS011;38322;53.108;6.308;2023-07-13T16:04:03;4.07;;;1.02;;
52396;SDS011;38322;53.108;6.308;2023-07-13T16:06:31;3.97;;;1.30;;
52396;SDS011;38322;53.108;6.308;2023-07-13T16:09:01;4.85;;;0.70;;
52396;SDS011;38322;53.108;6.308;2023-07-13T16:11:32;2.97;;;0.60;;
52396;SDS011;38322;53.108;6.308;2023-07-13T16:16:26;1.88;;;0.40;;
52396;SDS011;38322;53.108;6.308;2023-07-13T16:18:54;3.65;;;0.82;;
52396;SDS011;38322;53.108;6.308;2023-07-13T16:21:23;3.63;;;0.63;;
52396;SDS011;38322;53.108;6.308;2023-07-13T16:23:51;4.15;;;1.23;;
52396;SDS011;38322;53.108;6.308;2023-07-13T16:29:10;3.17;;;1.17;;
52396;SDS011;38322;53.108;6.308;2023-07-13T16:31:35;4.95;;;1.05;;
52396;SDS011;38322;53.108;6.308;2023-07-13T16:34:01;8.00;;;1.13;;
52396;SDS011;38322;53.108;6.308;2023-07-13T16:36:29;4.55;;;0.80;;
52396;SDS011;38322;53.108;6.308;2023-07-13T16:38:55;3.60;;;0.65;;
52396;SDS011;38322;53.108;6.308;2023-07-13T16:41:22;5.00;;;1.10;;
52396;SDS011;38322;53.108;6.308;2023-07-13T16:43:48;4.18;;;1.27;;
52396;SDS011;38322;53.108;6.308;2023-07-13T16:46:15;5.07;;;1.05;;
52396;SDS011;38322;53.108;6.308;2023-07-13T16:48:46;2.35;;;0.80;;
52396;SDS011;38322;53.108;6.308;2023-07-13T16:51:12;3.83;;;0.80;;
52396;SDS011;38322;53.108;6.308;2023-07-13T16:53:38;4.85;;;0.90;;
52396;SDS011;38322;53.108;6.308;2023-07-13T16:56:09;5.63;;;1.35;;
52396;SDS011;38322;53.108;6.308;2023-07-13T16:58:41;3.65;;;0.75;;
52396;SDS011;38322;53.108;6.308;2023-07-13T17:01:07;4.25;;;1.05;;
52396;SDS011;38322;53.108;6.308;2023-07-13T17:03:33;4.55;;;0.70;;
52396;SDS011;38322;53.108;6.308;2023-07-13T17:05:59;3.10;;;1.20;;
52396;SDS011;38322;53.108;6.308;2023-07-13T17:08:36;2.40;;;0.60;;
52396;SDS011;38322;53.108;6.308;2023-07-13T17:11:02;2.83;;;0.52;;
52396;SDS011;38322;53.108;6.308;2023-07-13T17:13:28;3.00;;;0.60;;
52396;SDS011;38322;53.108;6.308;2023-07-13T17:15:56;3.17;;;0.70;;
52396;SDS011;38322;53.108;6.308;2023-07-13T17:18:23;6.95;;;1.67;;
52396;SDS011;38322;53.108;6.308;2023-07-13T17:20:51;2.75;;;0.73;;
52396;SDS011;38322;53.108;6.308;2023-07-13T17:23:19;2.97;;;1.00;;
52396;SDS011;38322;53.108;6.308;2023-07-13T17:25:49;3.60;;;1.52;;
52396;SDS011;38322;53.108;6.308;2023-07-13T17:28:22;2.35;;;1.08;;
52396;SDS011;38322;53.108;6.308;2023-07-13T17:30:49;4.40;;;0.80;;
52396;SDS011;38322;53.108;6.308;2023-07-13T17:33:30;2.72;;;1.00;;
52396;SDS011;38322;53.108;6.308;2023-07-13T17:36:09;4.50;;;1.90;;
52396;SDS011;38322;53.108;6.308;2023-07-13T17:38:37;1.80;;;0.90;;
52396;SDS011;38322;53.108;6.308;2023-07-13T17:41:07;3.90;;;0.88;;
52396;SDS011;38322;53.108;6.308;2023-07-13T17:43:37;4.72;;;0.70;;
52396;SDS011;38322;53.108;6.308;2023-07-13T17:46:11;11.75;;;1.33;;
52396;SDS011;38322;53.108;6.308;2023-07-13T17:48:41;4.63;;;1.08;;
52396;SDS011;38322;53.108;6.308;2023-07-13T17:51:10;3.63;;;1.10;;
52396;SDS011;38322;53.108;6.308;2023-07-13T17:53:38;3.78;;;1.10;;
52396;SDS011;38322;53.108;6.308;2023-07-13T17:56:08;3.75;;;1.13;;
52396;SDS011;38322;53.108;6.308;2023-07-13T17:58:35;4.30;;;0.95;;
52396;SDS011;38322;53.108;6.308;2023-07-13T18:01:02;6.38;;;1.65;;
52396;SDS011;38322;53.108;6.308;2023-07-13T18:03:30;4.03;;;1.05;;
52396;SDS011;38322;53.108;6.308;2023-07-13T18:05:59;5.20;;;0.98;;
52396;SDS011;38322;53.108;6.308;2023-07-13T18:08:28;2.25;;;0.88;;
52396;SDS011;38322;53.108;6.308;2023-07-13T18:10:57;5.40;;;1.42;;
52396;SDS011;38322;53.108;6.308;2023-07-13T18:13:25;3.30;;;0.73;;
52396;SDS011;38322;53.108;6.308;2023-07-13T18:15:53;5.00;;;1.00;;
52396;SDS011;38322;53.108;6.308;2023-07-13T18:18:21;5.18;;;1.13;;
52396;SDS011;38322;53.108;6.308;2023-07-13T18:20:47;6.72;;;1.08;;
52396;SDS011;38322;53.108;6.308;2023-07-13T18:23:15;3.60;;;1.13;;
52396;SDS011;38322;53.108;6.308;2023-07-13T18:25:44;7.65;;;1.48;;
52396;SDS011;38322;53.108;6.308;2023-07-13T18:28:11;4.03;;;1.30;;
52396;SDS011;38322;53.108;6.308;2023-07-13T18:30:38;4.13;;;1.27;;
52396;SDS011;38322;53.108;6.308;2023-07-13T18:33:05;4.55;;;2.65;;
52396;SDS011;38322;53.108;6.308;2023-07-13T18:35:43;6.88;;;1.15;;
52396;SDS011;38322;53.108;6.308;2023-07-13T18:38:14;5.78;;;1.65;;
52396;SDS011;38322;53.108;6.308;2023-07-13T18:40:44;5.03;;;2.33;;
52396;SDS011;38322;53.108;6.308;2023-07-13T18:43:11;4.13;;;1.50;;
52396;SDS011;38322;53.108;6.308;2023-07-13T18:45:37;5.13;;;2.08;;
52396;SDS011;38322;53.108;6.308;2023-07-13T18:48:04;4.90;;;1.75;;
52396;SDS011;38322;53.108;6.308;2023-07-13T18:50:36;10.18;;;2.45;;
52396;SDS011;38322;53.108;6.308;2023-07-13T18:53:05;6.10;;;1.55;;
52396;SDS011;38322;53.108;6.308;2023-07-13T18:55:38;3.75;;;1.88;;
52396;SDS011;38322;53.108;6.308;2023-07-13T18:58:04;7.30;;;2.05;;
52396;SDS011;38322;53.108;6.308;2023-07-13T19:00:31;3.67;;;1.48;;
52396;SDS011;38322;53.108;6.308;2023-07-13T19:02:58;4.18;;;2.45;;
52396;SDS011;38322;53.108;6.308;2023-07-13T19:05:26;4.75;;;1.80;;
52396;SDS011;38322;53.108;6.308;2023-07-13T19:07:55;7.70;;;2.45;;
52396;SDS011;38322;53.108;6.308;2023-07-13T19:10:24;8.02;;;1.83;;
52396;SDS011;38322;53.108;6.308;2023-07-13T19:12:54;3.40;;;1.58;;
52396;SDS011;38322;53.108;6.308;2023-07-13T19:15:25;5.70;;;1.92;;
52396;SDS011;38322;53.108;6.308;2023-07-13T19:17:56;6.80;;;2.70;;
52396;SDS011;38322;53.108;6.308;2023-07-13T19:20:23;4.43;;;2.25;;
52396;SDS011;38322;53.108;6.308;2023-07-13T19:22:50;6.13;;;2.35;;
52396;SDS011;38322;53.108;6.308;2023-07-13T19:25:25;8.85;;;3.03;;
52396;SDS011;38322;53.108;6.308;2023-07-13T19:27:55;8.45;;;2.63;;
52396;SDS011;38322;53.108;6.308;2023-07-13T19:30:24;7.22;;;1.90;;
52396;SDS011;38322;53.108;6.308;2023-07-13T19:32:50;6.72;;;2.15;;
52396;SDS011;38322;53.108;6.308;2023-07-13T19:35:17;6.75;;;2.40;;
52396;SDS011;38322;53.108;6.308;2023-07-13T19:37:43;7.05;;;3.60;;
52396;SDS011;38322;53.108;6.308;2023-07-13T19:40:14;7.68;;;2.97;;
52396;SDS011;38322;53.108;6.308;2023-07-13T19:42:43;4.50;;;2.35;;
52396;SDS011;38322;53.108;6.308;2023-07-13T19:45:14;4.20;;;2.42;;
52396;SDS011;38322;53.108;6.308;2023-07-13T19:47:42;4.22;;;3.00;;
52396;SDS011;38322;53.108;6.308;2023-07-13T19:50:08;6.15;;;3.08;;
52396;SDS011;38322;53.108;6.308;2023-07-13T19:52:36;5.28;;;2.05;;
52396;SDS011;38322;53.108;6.308;2023-07-13T19:55:09;7.30;;;2.45;;
52396;SDS011;38322;53.108;6.308;2023-07-13T19:57:37;4.63;;;2.35;;
52396;SDS011;38322;53.108;6.308;2023-07-13T20:00:13;4.45;;;2.70;;
